createdAt,value
2022-12-18T00:02:59.002Z,42.78
2022-12-18T00:06:03.262Z,49.03
2022-12-18T00:09:06.035Z,30.33
2022-12-18T00:15:18.457Z,42.90
2022-12-18T00:18:21.454Z,40.20
2022-12-18T00:21:24.127Z,50.50
2022-12-18T00:24:27.574Z,46.60
2022-12-18T00:27:30.327Z,44.08
2022-12-18T00:30:33.383Z,37.40
2022-12-18T00:33:37.722Z,43.60
2022-12-18T00:36:42.191Z,46.70
2022-12-18T00:39:44.917Z,49.10
2022-12-18T00:42:56.809Z,44.20
2022-12-18T00:45:59.598Z,44.90
2022-12-18T00:49:02.717Z,47.28
2022-12-18T00:52:05.704Z,53.03
2022-12-18T00:55:09.243Z,49.53
2022-12-18T00:58:13.152Z,43.75
2022-12-18T01:01:16.907Z,41.65
2022-12-18T01:04:19.725Z,46.88
2022-12-18T01:07:22.834Z,43.65
2022-12-18T01:10:26.423Z,43.15
2022-12-18T01:13:33.524Z,37.40
2022-12-18T01:16:36.309Z,43.30
2022-12-18T01:19:40.775Z,41.20
2022-12-18T01:22:46.146Z,36.05
2022-12-18T01:25:49.253Z,40.15
2022-12-18T01:28:52.363Z,45.42
2022-12-18T01:31:57.434Z,38.47
2022-12-18T01:35:00.230Z,39.30
2022-12-18T01:38:03.583Z,39.80
2022-12-18T01:41:06.297Z,44.53
2022-12-18T01:44:49.513Z,54.53
2022-12-18T01:47:55.927Z,40.67
2022-12-18T01:50:58.983Z,44.00
2022-12-18T01:54:01.693Z,42.85
2022-12-18T01:57:06.038Z,45.45
2022-12-18T02:00:22.593Z,49.70
2022-12-18T02:03:27.055Z,51.78
2022-12-18T02:06:42.780Z,49.10
2022-12-18T02:09:56.182Z,42.80
2022-12-18T02:13:15.541Z,39.15
2022-12-18T02:16:30.244Z,39.90
2022-12-18T02:19:48.285Z,45.42
2022-12-18T02:23:12.623Z,47.28
2022-12-18T02:26:35.848Z,43.03
2022-12-18T02:29:58.824Z,35.53
2022-12-18T02:33:07.586Z,28.77
2022-12-18T02:36:12.155Z,38.58
2022-12-18T02:39:17.146Z,48.00
2022-12-18T02:42:21.132Z,42.33
2022-12-18T02:45:24.404Z,43.40
2022-12-18T02:48:36.345Z,46.97
2022-12-18T02:52:10.378Z,38.53
2022-12-18T02:55:38.288Z,35.63
2022-12-18T02:58:50.873Z,45.12
2022-12-18T03:02:04.608Z,37.90
2022-12-18T03:05:20.594Z,43.70
2022-12-18T03:08:29.301Z,47.70
2022-12-18T03:11:59.361Z,45.45
2022-12-18T03:15:18.700Z,48.97
2022-12-18T03:18:31.348Z,45.22
2022-12-18T03:21:41.901Z,43.50
2022-12-18T03:24:47.585Z,53.03
2022-12-18T03:27:57.617Z,54.38
2022-12-18T03:31:02.993Z,46.37
2022-12-18T03:34:15.681Z,53.95
2022-12-18T03:37:19.109Z,48.50
2022-12-18T03:40:28.363Z,48.10
2022-12-18T03:43:47.588Z,39.30
2022-12-18T03:46:53.575Z,48.60
2022-12-18T03:50:17.536Z,42.20
2022-12-18T03:53:42.948Z,45.47
2022-12-18T03:56:52.864Z,44.65
2022-12-18T04:00:11.850Z,40.10
2022-12-18T04:03:22.571Z,42.80
2022-12-18T04:06:31.061Z,49.80
2022-12-18T04:09:35.659Z,49.90
2022-12-18T04:12:39.967Z,44.88
2022-12-18T04:15:45.753Z,47.15
2022-12-18T04:18:49.407Z,42.13
2022-12-18T04:21:52.195Z,48.05
2022-12-18T04:24:55.386Z,37.45
2022-12-18T04:27:58.429Z,59.63
2022-12-18T04:31:01.443Z,51.37
2022-12-18T04:34:04.798Z,45.70
2022-12-18T04:37:09.767Z,43.83
2022-12-18T04:40:13.080Z,43.70
2022-12-18T04:43:16.514Z,50.80
2022-12-18T04:46:19.342Z,43.30
2022-12-18T04:49:22.470Z,52.57
2022-12-18T04:52:25.246Z,47.13
2022-12-18T04:55:28.660Z,49.33
2022-12-18T04:58:31.316Z,51.42
2022-12-18T05:01:35.171Z,47.10
2022-12-18T05:04:40.456Z,51.10
2022-12-18T05:07:43.602Z,50.65
2022-12-18T05:10:46.295Z,48.63
2022-12-18T05:13:49.395Z,47.28
2022-12-18T05:16:53.965Z,50.60
2022-12-18T05:19:59.832Z,52.87
2022-12-18T05:23:02.575Z,50.12
2022-12-18T05:26:07.552Z,44.63
2022-12-18T05:29:13.347Z,50.88
2022-12-18T05:32:17.164Z,53.05
2022-12-18T05:35:20.025Z,48.38
2022-12-18T05:38:25.134Z,47.72
2022-12-18T05:41:28.893Z,52.07
2022-12-18T05:44:31.915Z,47.90
2022-12-18T05:47:34.711Z,207.62
2022-12-18T05:50:39.598Z,97.10
2022-12-18T05:53:43.596Z,136.30
2022-12-18T05:56:48.806Z,87.85
2022-12-18T05:59:51.926Z,238.12
2022-12-18T06:02:55.357Z,122.62
2022-12-18T06:05:58.445Z,92.00
2022-12-18T06:09:02.524Z,62.95
2022-12-18T06:12:06.053Z,48.50
2022-12-18T06:15:09.401Z,48.67
2022-12-18T06:18:12.533Z,48.95
2022-12-18T06:21:15.271Z,46.73
2022-12-18T06:24:18.423Z,35.85
2022-12-18T06:27:21.601Z,48.58
2022-12-18T06:30:24.654Z,47.55
2022-12-18T06:33:29.207Z,56.37
2022-12-18T06:36:32.649Z,42.60
2022-12-18T06:39:35.396Z,44.67
2022-12-18T06:42:38.489Z,50.10
2022-12-18T06:45:41.394Z,52.80
2022-12-18T06:48:47.448Z,49.10
2022-12-18T06:51:50.162Z,43.10
2022-12-18T06:54:53.200Z,38.25
2022-12-18T06:57:55.870Z,51.83
2022-12-18T07:01:03.160Z,48.70
2022-12-18T07:04:06.026Z,54.33
2022-12-18T07:07:09.113Z,79.15
2022-12-18T07:10:12.037Z,65.10
2022-12-18T07:13:15.111Z,54.03
2022-12-18T07:16:25.352Z,269.23
2022-12-18T07:19:28.925Z,69.10
2022-12-18T07:22:32.780Z,62.03
2022-12-18T07:25:37.226Z,70.53
2022-12-18T07:28:41.506Z,68.80
2022-12-18T07:31:44.853Z,70.28
2022-12-18T07:34:47.577Z,73.68
2022-12-18T07:37:50.486Z,75.55
2022-12-18T07:40:53.242Z,79.62
2022-12-18T07:43:56.288Z,76.90
2022-12-18T07:46:59.064Z,103.43
2022-12-18T07:50:02.036Z,72.53
2022-12-18T07:53:05.925Z,70.13
2022-12-18T07:56:27.070Z,72.15
2022-12-18T07:59:30.723Z,67.20
2022-12-18T08:02:33.983Z,71.43
2022-12-18T08:05:37.774Z,64.70
2022-12-18T08:08:42.572Z,75.60
2022-12-18T08:11:45.743Z,57.92
2022-12-18T08:14:48.482Z,41.27
2022-12-18T08:17:51.531Z,42.65
2022-12-18T08:20:54.268Z,50.55
2022-12-18T08:24:00.260Z,159.93
2022-12-18T08:30:19.219Z,91.03
2022-12-18T08:33:22.073Z,148.20
2022-12-18T08:36:25.763Z,38.97
2022-12-18T08:39:29.733Z,88.28
2022-12-18T08:42:52.960Z,128.93
2022-12-18T08:45:55.777Z,63.85
2022-12-18T08:48:59.224Z,255.83
2022-12-18T08:52:03.948Z,217.55
2022-12-18T08:55:07.806Z,76.12
2022-12-18T08:58:10.570Z,65.55
2022-12-18T09:01:14.897Z,68.30
2022-12-18T09:04:18.024Z,52.70
2022-12-18T09:07:21.013Z,50.90
2022-12-18T09:10:24.057Z,137.02
2022-12-18T09:13:27.480Z,91.07
2022-12-18T09:16:32.519Z,48.45
2022-12-18T09:19:36.027Z,53.53
2022-12-18T09:22:38.725Z,50.17
2022-12-18T09:25:41.986Z,50.53
2022-12-18T09:28:45.016Z,55.65
2022-12-18T09:31:48.364Z,51.58
2022-12-18T09:34:50.984Z,49.63
2022-12-18T09:37:54.567Z,49.33
2022-12-18T09:41:02.554Z,48.55
2022-12-18T09:44:25.837Z,47.08
2022-12-18T09:47:39.082Z,53.70
2022-12-18T09:50:42.371Z,48.80
2022-12-18T09:53:51.328Z,44.27
2022-12-18T09:56:54.507Z,52.55
2022-12-18T10:00:06.408Z,48.78
2022-12-18T10:03:16.156Z,51.03
2022-12-18T10:06:23.657Z,52.37
2022-12-18T10:09:42.394Z,52.83
2022-12-18T10:13:07.517Z,52.28
2022-12-18T10:16:17.416Z,50.15
2022-12-18T10:19:37.575Z,50.63
2022-12-18T10:22:46.413Z,45.70
2022-12-18T10:26:07.508Z,42.43
2022-12-18T10:29:15.846Z,51.03
2022-12-18T10:32:28.979Z,46.92
2022-12-18T10:35:31.758Z,44.65
2022-12-18T10:38:35.426Z,44.33
2022-12-18T10:41:38.080Z,49.10
2022-12-18T10:44:41.852Z,51.75
2022-12-18T10:47:49.752Z,47.45
2022-12-18T10:54:18.544Z,51.40
2022-12-18T10:57:27.543Z,44.37
2022-12-18T11:00:31.628Z,44.08
2022-12-18T11:04:01.764Z,43.15
2022-12-18T11:07:08.003Z,43.05
2022-12-18T11:10:12.573Z,43.73
2022-12-18T11:13:24.405Z,43.97
2022-12-18T11:16:30.198Z,42.58
2022-12-18T11:19:42.053Z,38.50
2022-12-18T11:22:59.631Z,35.70
2022-12-18T11:26:05.216Z,43.23
2022-12-18T11:29:18.239Z,43.27
2022-12-18T11:32:30.899Z,38.88
2022-12-18T11:35:48.922Z,41.00
2022-12-18T11:38:55.794Z,40.03
2022-12-18T11:42:14.248Z,38.77
2022-12-18T11:52:29.251Z,47.40
2022-12-18T11:55:41.352Z,39.25
2022-12-18T11:58:48.994Z,43.57
2022-12-18T12:01:57.295Z,43.22
2022-12-18T12:05:23.760Z,40.45
2022-12-18T12:09:05.293Z,40.58
2022-12-18T12:12:14.199Z,41.45
2022-12-18T12:15:55.753Z,43.00
2022-12-18T12:19:19.231Z,42.95
2022-12-18T12:22:27.294Z,43.20
2022-12-18T12:25:41.922Z,42.75
2022-12-18T12:28:59.901Z,42.53
2022-12-18T12:32:13.537Z,45.17
2022-12-18T12:39:01.031Z,40.38
2022-12-18T12:42:35.191Z,41.45
2022-12-18T12:45:49.500Z,40.97
2022-12-18T12:48:59.563Z,41.30
2022-12-18T12:52:15.211Z,39.90
2022-12-18T12:55:22.299Z,40.85
2022-12-18T12:58:50.852Z,44.13
2022-12-18T13:02:18.296Z,44.33
2022-12-18T13:05:45.360Z,41.43
2022-12-18T13:09:00.961Z,47.67
2022-12-18T13:12:24.527Z,46.15
2022-12-18T13:15:42.741Z,45.90
2022-12-18T13:18:55.532Z,47.37
2022-12-18T13:21:58.518Z,43.20
2022-12-18T13:25:01.699Z,48.30
2022-12-18T13:28:11.434Z,52.70
2022-12-18T13:31:35.335Z,41.45
2022-12-18T13:34:38.530Z,47.10
2022-12-18T13:37:45.376Z,49.03
2022-12-18T13:40:48.337Z,44.72
2022-12-18T13:44:11.126Z,44.90
2022-12-18T13:47:36.307Z,46.50
2022-12-18T13:50:40.344Z,46.17
2022-12-18T13:53:52.204Z,42.47
2022-12-18T13:56:55.137Z,45.28
2022-12-18T13:59:59.261Z,43.97
2022-12-18T14:03:02.539Z,44.70
2022-12-18T14:06:10.079Z,48.77
2022-12-18T14:09:36.684Z,45.17
2022-12-18T14:13:00.668Z,46.05
2022-12-18T14:16:08.640Z,46.72
2022-12-18T14:19:18.563Z,49.75
2022-12-18T14:22:28.920Z,47.77
2022-12-18T14:25:32.254Z,45.42
2022-12-18T14:28:45.656Z,50.12
2022-12-18T14:32:18.933Z,57.53
2022-12-18T14:35:22.031Z,52.72
2022-12-18T14:38:49.550Z,50.20
2022-12-18T14:41:53.851Z,51.22
2022-12-18T14:45:40.915Z,48.75
2022-12-18T14:48:48.830Z,50.15
2022-12-18T14:51:57.131Z,53.05
2022-12-18T14:55:00.278Z,46.30
2022-12-18T14:58:04.314Z,49.97
2022-12-18T15:01:08.629Z,48.87
2022-12-18T15:04:30.888Z,53.63
2022-12-18T15:07:50.435Z,60.00
2022-12-18T15:10:54.268Z,54.28
2022-12-18T15:14:00.784Z,56.42
2022-12-18T15:17:26.785Z,59.05
2022-12-18T15:20:35.876Z,54.73
2022-12-18T15:23:52.933Z,54.72
2022-12-18T15:26:56.786Z,50.42
2022-12-18T15:30:11.462Z,54.05
2022-12-18T15:33:26.395Z,49.57
2022-12-18T15:36:37.795Z,56.70
2022-12-18T15:39:41.456Z,63.95
2022-12-18T15:43:04.777Z,71.78
2022-12-18T15:46:13.384Z,123.07
2022-12-18T15:49:19.120Z,138.98
2022-12-18T15:52:27.534Z,94.70
2022-12-18T15:55:55.277Z,63.70
2022-12-18T15:59:02.464Z,62.62
2022-12-18T16:02:18.118Z,87.88
2022-12-18T16:05:26.317Z,90.75
2022-12-18T16:08:33.741Z,99.70
2022-12-18T16:11:44.669Z,98.00
2022-12-18T16:14:52.671Z,93.65
2022-12-18T16:17:57.084Z,94.93
2022-12-18T16:21:01.009Z,92.23
2022-12-18T16:24:05.951Z,100.05
2022-12-18T16:27:09.925Z,112.05
2022-12-18T16:30:20.046Z,106.10
2022-12-18T16:33:24.271Z,110.03
2022-12-18T16:36:31.416Z,127.03
2022-12-18T16:39:36.799Z,131.15
2022-12-18T16:42:42.380Z,175.93
2022-12-18T16:45:46.440Z,207.73
2022-12-18T16:48:50.905Z,190.05
2022-12-18T16:51:54.424Z,169.60
2022-12-18T16:54:58.697Z,167.27
2022-12-18T16:58:02.275Z,131.20
2022-12-18T17:01:10.758Z,107.70
2022-12-18T17:04:14.750Z,119.47
2022-12-18T17:07:18.585Z,134.70
2022-12-18T17:10:22.654Z,157.20
2022-12-18T17:13:29.224Z,133.82
2022-12-18T17:16:34.478Z,116.80
2022-12-18T17:19:39.473Z,113.63
2022-12-18T17:22:44.312Z,111.95
2022-12-18T17:25:50.097Z,119.97
2022-12-18T17:28:53.818Z,104.90
2022-12-18T17:32:00.485Z,96.80
2022-12-18T17:35:07.369Z,101.47
2022-12-18T17:38:25.905Z,91.90
2022-12-18T17:41:31.449Z,95.47
2022-12-18T17:44:35.669Z,90.67
2022-12-18T17:47:39.825Z,93.93
2022-12-18T17:50:48.059Z,104.85
2022-12-18T17:53:53.991Z,96.30
2022-12-18T17:56:57.416Z,92.68
2022-12-18T18:00:01.462Z,104.35
2022-12-18T18:03:05.584Z,104.22
2022-12-18T18:06:10.734Z,103.57
2022-12-18T18:09:17.596Z,99.10
2022-12-18T18:12:40.677Z,96.70
2022-12-18T18:15:46.372Z,97.27
2022-12-18T18:18:50.901Z,91.78
2022-12-18T18:21:54.845Z,100.78
2022-12-18T18:24:59.227Z,103.15
2022-12-18T18:28:11.737Z,98.78
2022-12-18T18:31:15.924Z,102.53
2022-12-18T18:34:23.352Z,125.15
2022-12-18T18:37:27.929Z,117.90
2022-12-18T18:40:31.532Z,108.32
2022-12-18T18:43:36.211Z,105.07
2022-12-18T18:46:41.229Z,120.93
2022-12-18T18:49:46.225Z,106.00
2022-12-18T18:52:49.876Z,108.55
2022-12-18T18:56:17.460Z,122.05
2022-12-18T18:59:21.514Z,119.57
2022-12-18T19:02:36.003Z,118.87
2022-12-18T19:05:44.471Z,128.68
2022-12-18T19:09:02.569Z,112.47
2022-12-18T19:12:25.080Z,120.60
2022-12-18T19:15:29.212Z,111.80
2022-12-18T19:18:33.931Z,113.78
2022-12-18T19:21:38.949Z,129.40
2022-12-18T19:24:42.584Z,132.35
2022-12-18T19:27:48.186Z,120.45
2022-12-18T19:30:58.614Z,109.65
2022-12-18T19:34:03.587Z,126.43
2022-12-18T19:37:07.048Z,121.05
2022-12-18T19:40:12.654Z,99.25
2022-12-18T19:43:16.587Z,156.67
2022-12-18T19:46:22.826Z,143.95
2022-12-18T19:49:26.617Z,125.78
2022-12-18T19:52:30.406Z,124.67
2022-12-18T19:55:41.003Z,109.00
2022-12-18T19:58:47.774Z,108.15
2022-12-18T20:01:51.950Z,120.90
2022-12-18T20:04:55.779Z,115.82
2022-12-18T20:08:00.921Z,125.90
2022-12-18T20:11:05.410Z,122.40
2022-12-18T20:14:10.269Z,117.67
2022-12-18T20:17:15.097Z,123.30
2022-12-18T20:20:19.621Z,115.95
2022-12-18T20:23:24.928Z,108.17
2022-12-18T20:26:28.395Z,100.47
2022-12-18T20:29:32.507Z,86.93
2022-12-18T20:32:37.226Z,72.65
2022-12-18T20:35:41.880Z,89.75
2022-12-18T20:38:46.378Z,106.45
2022-12-18T20:41:51.334Z,116.85
2022-12-18T20:44:54.297Z,106.63
2022-12-18T20:47:59.674Z,101.40
2022-12-18T20:51:06.098Z,110.12
2022-12-18T20:54:11.922Z,99.07
2022-12-18T20:57:14.942Z,111.57
2022-12-18T21:00:21.267Z,103.70
2022-12-18T21:03:24.347Z,103.80
2022-12-18T21:06:30.072Z,98.45
2022-12-18T21:09:37.779Z,113.62
2022-12-18T21:12:58.755Z,111.20
2022-12-18T21:16:06.577Z,94.53
2022-12-18T21:19:13.145Z,89.78
2022-12-18T21:22:16.163Z,91.75
2022-12-18T21:25:19.408Z,95.43
2022-12-18T21:28:22.240Z,91.35
2022-12-18T21:31:29.192Z,109.00
2022-12-18T21:34:33.347Z,87.65
2022-12-18T21:37:36.426Z,96.63
2022-12-18T21:40:39.945Z,117.90
2022-12-18T21:44:01.820Z,105.50
2022-12-18T21:47:16.066Z,84.57
2022-12-18T21:50:25.816Z,93.57
2022-12-18T21:53:28.591Z,86.85
2022-12-18T21:56:59.133Z,84.53
2022-12-18T22:00:02.338Z,101.95
2022-12-18T22:03:18.277Z,89.10
2022-12-18T22:06:22.597Z,102.22
2022-12-18T22:09:25.608Z,84.93
2022-12-18T22:12:46.594Z,88.60
2022-12-18T22:15:49.255Z,87.82
2022-12-18T22:18:52.329Z,92.03
2022-12-18T22:21:55.041Z,88.35
2022-12-18T22:24:58.167Z,85.50
2022-12-18T22:28:19.428Z,91.27
2022-12-18T22:31:22.616Z,80.72
2022-12-18T22:34:25.430Z,83.00
2022-12-18T22:37:28.447Z,87.55
2022-12-18T22:40:31.146Z,85.75
2022-12-18T22:43:34.215Z,79.32
2022-12-18T22:46:42.447Z,90.60
2022-12-18T22:49:45.509Z,84.90
2022-12-18T22:52:48.229Z,88.40
2022-12-18T22:55:51.205Z,88.12
2022-12-18T22:58:54.128Z,83.30
2022-12-18T23:01:59.601Z,90.18
2022-12-18T23:05:02.438Z,85.35
2022-12-18T23:08:05.642Z,97.80
2022-12-18T23:11:09.022Z,78.28
2022-12-18T23:14:13.005Z,89.55
2022-12-18T23:17:15.656Z,86.65
2022-12-18T23:20:18.782Z,88.00
2022-12-18T23:23:21.415Z,94.50
2022-12-18T23:26:25.752Z,90.10
2022-12-18T23:29:28.422Z,71.93
2022-12-18T23:32:31.468Z,78.18
2022-12-18T23:35:37.911Z,85.55
2022-12-18T23:38:41.578Z,71.15
2022-12-18T23:41:44.223Z,87.07
2022-12-18T23:44:47.176Z,70.60
2022-12-18T23:47:51.341Z,75.75
2022-12-18T23:50:54.466Z,87.73
2022-12-18T23:53:59.729Z,80.65
2022-12-18T23:57:02.896Z,74.72
